createdAt,value
2022-08-18T00:01:11.821Z,14.20
2022-08-18T00:03:56.673Z,14.37
2022-08-18T00:06:29.517Z,14.63
2022-08-18T00:09:00.753Z,14.33
2022-08-18T00:11:41.654Z,14.47
2022-08-18T00:14:14.531Z,14.57
2022-08-18T00:16:52.645Z,15.73
2022-08-18T00:19:43.419Z,15.67
2022-08-18T00:22:14.867Z,14.30
2022-08-18T00:24:48.498Z,14.83
2022-08-18T00:27:21.603Z,15.30
2022-08-18T00:29:50.387Z,14.77
2022-08-18T00:32:21.439Z,15.87
2022-08-18T00:34:49.509Z,16.10
2022-08-18T00:37:17.643Z,15.07
2022-08-18T00:39:48.120Z,15.77
2022-08-18T00:42:27.777Z,15.40
2022-08-18T00:45:02.227Z,14.53
2022-08-18T00:47:40.997Z,15.50
2022-08-18T00:50:15.954Z,15.77
2022-08-18T00:52:50.402Z,15.00
2022-08-18T00:55:21.757Z,15.03
2022-08-18T00:57:53.434Z,14.70
2022-08-18T01:00:22.295Z,15.53
2022-08-18T01:02:55.718Z,14.20
2022-08-18T01:05:28.380Z,15.00
2022-08-18T01:07:56.689Z,14.50
2022-08-18T01:10:26.061Z,14.40
2022-08-18T01:12:57.155Z,14.60
2022-08-18T01:15:29.116Z,12.87
2022-08-18T01:18:16.662Z,13.70
2022-08-18T01:21:15.822Z,15.17
2022-08-18T01:23:46.924Z,13.33
2022-08-18T01:26:17.724Z,13.07
2022-08-18T01:28:47.383Z,13.00
2022-08-18T01:31:32.980Z,13.40
2022-08-18T01:34:01.206Z,12.17
2022-08-18T01:36:30.330Z,12.97
2022-08-18T01:38:59.786Z,12.60
2022-08-18T01:41:30.705Z,12.37
2022-08-18T01:44:00.875Z,11.70
2022-08-18T01:46:30.487Z,11.60
2022-08-18T01:49:01.278Z,12.50
2022-08-18T01:51:39.981Z,12.17
2022-08-18T01:54:13.003Z,11.40
2022-08-18T01:56:43.157Z,11.90
2022-08-18T01:59:15.140Z,11.53
2022-08-18T02:01:48.375Z,11.23
2022-08-18T02:04:36.909Z,11.63
2022-08-18T02:07:08.727Z,10.80
2022-08-18T02:09:39.960Z,11.40
2022-08-18T02:12:08.988Z,11.30
2022-08-18T02:14:37.320Z,9.83
2022-08-18T02:17:08.313Z,10.97
2022-08-18T02:19:38.515Z,12.00
2022-08-18T02:22:08.264Z,12.10
2022-08-18T02:24:38.039Z,11.53
2022-08-18T02:27:07.075Z,11.77
2022-08-18T02:29:35.381Z,11.47
2022-08-18T02:32:03.825Z,12.03
2022-08-18T02:34:31.865Z,10.90
2022-08-18T02:37:00.604Z,11.47
2022-08-18T02:39:29.124Z,10.87
2022-08-18T02:41:58.730Z,12.30
2022-08-18T02:44:26.788Z,12.60
2022-08-18T02:46:55.553Z,12.20
2022-08-18T02:49:23.636Z,11.60
2022-08-18T02:51:53.582Z,12.40
2022-08-18T02:54:23.115Z,11.80
2022-08-18T02:56:52.097Z,11.10
2022-08-18T02:59:28.323Z,10.83
2022-08-18T03:02:00.247Z,12.00
2022-08-18T03:04:30.959Z,11.80
2022-08-18T03:07:01.337Z,11.80
2022-08-18T03:09:30.900Z,11.40
2022-08-18T03:11:59.776Z,10.30
2022-08-18T03:14:29.411Z,11.40
2022-08-18T03:16:57.605Z,12.10
2022-08-18T03:19:26.494Z,11.30
2022-08-18T03:21:58.076Z,11.70
2022-08-18T03:24:27.152Z,12.10
2022-08-18T03:26:56.790Z,11.23
2022-08-18T03:29:29.506Z,11.17
2022-08-18T03:32:02.440Z,11.07
2022-08-18T03:34:32.287Z,10.90
2022-08-18T03:37:00.725Z,10.63
2022-08-18T03:39:29.774Z,11.10
2022-08-18T03:42:01.645Z,11.47
2022-08-18T03:44:31.749Z,10.67
2022-08-18T03:47:02.947Z,11.10
2022-08-18T03:49:31.408Z,11.30
2022-08-18T03:52:00.933Z,10.33
2022-08-18T03:54:31.987Z,10.73
2022-08-18T03:57:00.240Z,10.80
2022-08-18T03:59:31.680Z,10.23
2022-08-18T04:02:03.490Z,10.87
2022-08-18T04:04:32.237Z,12.20
2022-08-18T04:07:04.635Z,11.40
2022-08-18T04:09:34.386Z,10.60
2022-08-18T04:12:16.384Z,10.77
2022-08-18T04:14:48.059Z,11.27
2022-08-18T04:17:23.935Z,13.67
2022-08-18T04:19:52.514Z,10.30
2022-08-18T04:22:20.767Z,10.77
2022-08-18T04:24:50.236Z,11.43
2022-08-18T04:27:19.223Z,11.87
2022-08-18T04:29:47.748Z,11.47
2022-08-18T04:32:17.323Z,10.90
2022-08-18T04:34:45.516Z,10.57
2022-08-18T04:37:13.874Z,10.43
2022-08-18T04:39:42.023Z,10.83
2022-08-18T04:42:10.313Z,10.53
2022-08-18T04:44:38.806Z,10.63
2022-08-18T04:47:09.010Z,11.87
2022-08-18T04:49:38.813Z,11.33
2022-08-18T04:52:40.141Z,12.07
2022-08-18T04:55:10.839Z,11.50
2022-08-18T04:57:39.000Z,10.40
2022-08-18T05:00:08.478Z,9.77
2022-08-18T05:02:36.541Z,10.90
2022-08-18T05:05:07.177Z,10.87
2022-08-18T05:07:35.217Z,11.50
2022-08-18T05:10:03.295Z,11.07
2022-08-18T05:12:31.337Z,12.00
2022-08-18T05:14:59.386Z,11.93
2022-08-18T05:17:30.145Z,11.50
2022-08-18T05:19:59.925Z,12.73
2022-08-18T05:22:31.312Z,11.40
2022-08-18T05:25:00.229Z,12.10
2022-08-18T05:27:33.222Z,11.60
2022-08-18T05:30:01.315Z,11.37
2022-08-18T05:32:48.033Z,11.67
2022-08-18T05:35:24.185Z,15.40
2022-08-18T05:38:24.932Z,11.20
2022-08-18T05:41:08.583Z,12.47
2022-08-18T05:43:51.456Z,11.90
2022-08-18T05:46:23.487Z,11.57
2022-08-18T05:48:51.864Z,12.33
2022-08-18T05:51:31.609Z,13.07
2022-08-18T05:54:19.930Z,10.80
2022-08-18T05:56:51.114Z,11.87
2022-08-18T05:59:24.665Z,11.90
2022-08-18T06:01:59.785Z,11.70
2022-08-18T06:04:35.803Z,12.10
2022-08-18T06:07:08.250Z,11.10
2022-08-18T06:09:43.589Z,12.00
2022-08-18T06:12:25.391Z,11.27
2022-08-18T06:14:56.567Z,11.37
2022-08-18T06:17:43.856Z,10.57
2022-08-18T06:20:24.746Z,10.33
2022-08-18T06:23:01.802Z,10.50
2022-08-18T06:25:38.527Z,10.83
2022-08-18T06:28:13.194Z,10.10
2022-08-18T06:30:55.311Z,10.87
2022-08-18T06:33:41.163Z,10.20
2022-08-18T06:36:19.236Z,10.83
2022-08-18T06:39:02.346Z,11.53
2022-08-18T06:41:42.101Z,10.60
2022-08-18T06:44:14.666Z,11.10
2022-08-18T06:46:46.711Z,11.10
2022-08-18T06:49:23.186Z,10.90
2022-08-18T06:51:51.423Z,11.00
2022-08-18T06:54:29.326Z,9.93
2022-08-18T06:56:59.923Z,10.93
2022-08-18T06:59:31.277Z,11.47
2022-08-18T07:02:02.581Z,10.30
2022-08-18T07:04:38.647Z,9.53
2022-08-18T07:07:20.422Z,10.83
2022-08-18T07:09:49.776Z,10.20
2022-08-18T07:12:30.488Z,11.33
2022-08-18T07:15:03.221Z,11.10
2022-08-18T07:17:52.908Z,11.17
2022-08-18T07:20:24.570Z,11.37
2022-08-18T07:22:56.767Z,12.10
2022-08-18T07:25:30.923Z,11.50
2022-08-18T07:28:02.626Z,11.70
2022-08-18T07:30:34.167Z,12.63
2022-08-18T07:33:10.546Z,12.27
2022-08-18T07:35:43.947Z,12.17
2022-08-18T07:38:41.362Z,11.37
2022-08-18T07:41:15.995Z,11.97
2022-08-18T07:43:53.477Z,11.67
2022-08-18T07:46:28.381Z,11.47
2022-08-18T07:48:58.772Z,11.80
2022-08-18T07:51:37.572Z,12.10
2022-08-18T07:54:31.157Z,11.40
2022-08-18T07:57:06.575Z,12.40
2022-08-18T07:59:41.713Z,12.23
2022-08-18T08:02:23.191Z,12.90
2022-08-18T08:05:04.331Z,12.70
2022-08-18T08:07:46.417Z,11.73
2022-08-18T08:10:31.563Z,12.53
2022-08-18T08:13:09.814Z,14.97
2022-08-18T08:15:49.539Z,14.07
2022-08-18T08:18:24.625Z,14.03
2022-08-18T08:20:55.942Z,15.80
2022-08-18T08:23:30.538Z,12.43
2022-08-18T08:26:18.497Z,14.67
2022-08-18T08:28:56.167Z,14.70
2022-08-18T08:31:38.462Z,12.83
2022-08-18T08:34:12.147Z,13.97
2022-08-18T08:36:45.021Z,13.17
2022-08-18T08:39:20.002Z,14.40
2022-08-18T08:42:29.697Z,13.10
2022-08-18T08:44:59.352Z,14.67
2022-08-18T08:47:33.662Z,15.43
2022-08-18T08:50:05.314Z,12.50
2022-08-18T08:52:41.024Z,15.07
2022-08-18T08:55:14.618Z,14.33
2022-08-18T08:57:48.747Z,15.30
2022-08-18T09:00:17.384Z,15.00
2022-08-18T09:03:06.857Z,14.60
2022-08-18T09:05:41.402Z,12.83
2022-08-18T09:08:30.442Z,14.00
2022-08-18T09:11:31.252Z,12.73
2022-08-18T09:14:24.009Z,13.70
2022-08-18T09:17:07.542Z,14.97
2022-08-18T09:19:55.001Z,15.30
2022-08-18T09:22:37.724Z,11.67
2022-08-18T09:25:11.940Z,15.57
2022-08-18T09:28:09.538Z,13.03
2022-08-18T09:30:55.217Z,12.63
2022-08-18T09:33:35.338Z,14.20
2022-08-18T09:36:21.363Z,13.03
2022-08-18T09:39:18.396Z,12.10
2022-08-18T09:41:53.070Z,14.30
2022-08-18T09:45:01.575Z,14.70
2022-08-18T09:47:58.897Z,14.43
2022-08-18T09:50:38.887Z,15.23
2022-08-18T09:53:38.036Z,13.40
2022-08-18T09:56:08.163Z,12.30
2022-08-18T09:58:58.675Z,13.50
2022-08-18T10:01:43.353Z,11.27
2022-08-18T10:04:29.271Z,13.27
2022-08-18T10:07:18.250Z,14.07
2022-08-18T10:09:58.706Z,15.77
2022-08-18T10:12:37.244Z,14.57
2022-08-18T10:15:40.641Z,11.43
2022-08-18T10:18:35.441Z,12.10
2022-08-18T10:21:12.680Z,14.10
2022-08-18T10:24:35.241Z,14.37
2022-08-18T10:27:08.602Z,13.47
2022-08-18T10:29:55.626Z,13.67
2022-08-18T10:32:54.639Z,13.67
2022-08-18T10:35:59.068Z,11.70
2022-08-18T10:38:53.261Z,12.17
2022-08-18T10:41:30.998Z,13.07
2022-08-18T10:44:15.535Z,12.80
2022-08-18T10:46:53.368Z,10.83
2022-08-18T10:49:26.259Z,11.10
2022-08-18T10:52:35.223Z,10.63
2022-08-18T10:55:17.766Z,10.67
2022-08-18T10:58:13.560Z,11.47
2022-08-18T11:01:01.866Z,11.90
2022-08-18T11:03:55.943Z,10.53
2022-08-18T11:06:26.220Z,9.90
2022-08-18T11:09:00.262Z,15.13
2022-08-18T11:11:37.263Z,12.77
2022-08-18T11:15:00.089Z,12.60
2022-08-18T11:17:42.883Z,11.30
2022-08-18T11:20:14.280Z,12.60
2022-08-18T11:22:51.632Z,10.63
2022-08-18T11:25:25.121Z,12.23
2022-08-18T11:27:57.013Z,12.37
2022-08-18T11:30:31.470Z,14.37
2022-08-18T11:33:05.703Z,11.80
2022-08-18T11:35:46.127Z,10.97
2022-08-18T11:38:20.923Z,11.53
2022-08-18T11:41:12.050Z,10.93
2022-08-18T11:46:32.198Z,10.30
2022-08-18T11:49:14.023Z,11.83
2022-08-18T11:51:56.970Z,10.90
2022-08-18T12:01:01.437Z,10.40
2022-08-18T12:03:41.722Z,11.43
2022-08-18T12:06:23.573Z,11.40
2022-08-18T12:09:02.622Z,11.60
2022-08-18T12:11:33.623Z,12.30
2022-08-18T12:16:55.349Z,10.33
2022-08-18T12:19:25.329Z,13.17
2022-08-18T12:21:58.587Z,13.80
2022-08-18T12:24:29.409Z,14.50
2022-08-18T12:27:20.447Z,13.67
2022-08-18T12:29:50.566Z,10.87
2022-08-18T12:32:56.034Z,13.17
2022-08-18T12:35:11.167Z,12.70
2022-08-18T12:38:11.049Z,12.80
2022-08-18T12:40:32.591Z,13.87
2022-08-18T12:43:01.183Z,10.40
2022-08-18T12:45:31.151Z,11.27
2022-08-18T12:48:04.468Z,10.53
2022-08-18T12:50:37.556Z,10.77
2022-08-18T12:53:12.611Z,11.23
2022-08-18T12:55:45.478Z,10.80
2022-08-18T12:58:13.788Z,11.10
2022-08-18T13:00:43.347Z,9.33
2022-08-18T13:03:11.430Z,10.10
2022-08-18T13:05:39.556Z,10.30
2022-08-18T13:08:12.756Z,9.53
2022-08-18T13:11:20.881Z,11.10
2022-08-18T13:13:52.939Z,9.77
2022-08-18T13:16:38.986Z,11.30
2022-08-18T13:19:14.256Z,12.33
2022-08-18T13:21:43.180Z,10.47
2022-08-18T13:24:12.734Z,10.67
2022-08-18T13:26:45.599Z,10.90
2022-08-18T13:29:15.479Z,10.10
2022-08-18T13:31:55.713Z,10.97
2022-08-18T13:34:27.460Z,10.50
2022-08-18T13:36:58.628Z,10.20
2022-08-18T13:39:34.225Z,11.13
2022-08-18T13:42:26.731Z,9.80
2022-08-18T13:44:54.994Z,10.07
2022-08-18T13:47:29.165Z,11.07
2022-08-18T13:49:59.813Z,10.17
2022-08-18T13:52:34.482Z,10.10
2022-08-18T13:55:08.248Z,9.57
2022-08-18T13:57:39.063Z,9.97
2022-08-18T14:00:18.178Z,8.67
2022-08-18T14:02:51.015Z,9.33
2022-08-18T14:05:20.541Z,11.20
2022-08-18T14:07:49.172Z,9.80
2022-08-18T14:10:17.557Z,10.47
2022-08-18T14:12:47.789Z,10.57
2022-08-18T14:15:17.865Z,9.33
2022-08-18T14:17:47.086Z,10.70
2022-08-18T14:20:34.364Z,10.53
2022-08-18T14:23:21.687Z,9.77
2022-08-18T14:26:09.692Z,9.70
2022-08-18T14:28:41.471Z,10.70
2022-08-18T14:31:11.697Z,10.13
2022-08-18T14:33:50.762Z,9.87
2022-08-18T14:36:29.559Z,9.80
2022-08-18T14:38:58.938Z,11.13
2022-08-18T14:41:27.373Z,11.13
2022-08-18T14:44:11.588Z,11.20
2022-08-18T14:46:53.999Z,11.03
2022-08-18T14:49:28.266Z,11.33
2022-08-18T14:51:57.857Z,10.97
2022-08-18T14:54:28.535Z,11.57
2022-08-18T14:56:58.719Z,10.30
2022-08-18T14:59:28.519Z,10.63
2022-08-18T15:01:56.777Z,11.70
2022-08-18T15:04:25.151Z,10.37
2022-08-18T15:06:56.316Z,12.23
2022-08-18T15:09:27.228Z,11.57
2022-08-18T15:11:56.745Z,10.10
2022-08-18T15:14:32.671Z,11.60
2022-08-18T15:17:03.855Z,10.87
2022-08-18T15:20:00.193Z,13.10
2022-08-18T15:22:45.886Z,11.10
2022-08-18T15:25:34.170Z,13.30
2022-08-18T15:28:02.943Z,13.43
2022-08-18T15:30:32.141Z,13.10
2022-08-18T15:33:03.092Z,14.50
2022-08-18T15:35:31.902Z,12.50
2022-08-18T15:38:05.053Z,13.37
2022-08-18T15:40:36.098Z,12.17
2022-08-18T15:43:10.569Z,11.77
2022-08-18T15:45:51.098Z,11.80
2022-08-18T15:48:27.761Z,12.53
2022-08-18T15:50:56.903Z,12.73
2022-08-18T15:53:29.555Z,13.33
2022-08-18T15:55:58.703Z,13.23
2022-08-18T15:58:32.578Z,12.67
2022-08-18T16:01:00.687Z,10.90
2022-08-18T16:03:31.612Z,13.17
2022-08-18T16:05:59.803Z,12.20
2022-08-18T16:08:27.948Z,12.93
2022-08-18T16:10:56.582Z,12.87
2022-08-18T16:13:26.388Z,12.80
2022-08-18T16:15:54.557Z,13.57
2022-08-18T16:18:22.646Z,12.20
2022-08-18T16:20:52.753Z,11.37
2022-08-18T16:23:25.075Z,12.47
2022-08-18T16:25:53.265Z,12.40
2022-08-18T16:28:21.425Z,12.47
2022-08-18T16:31:03.492Z,13.17
2022-08-18T16:33:31.741Z,13.67
2022-08-18T16:36:05.861Z,13.63
2022-08-18T16:38:34.092Z,13.80
2022-08-18T16:41:07.441Z,13.50
2022-08-18T16:43:38.085Z,12.73
2022-08-18T16:46:11.302Z,13.40
2022-08-18T16:48:39.453Z,13.77
2022-08-18T16:51:12.803Z,13.43
2022-08-18T16:53:40.932Z,12.53
2022-08-18T16:56:13.649Z,13.40
2022-08-18T16:58:59.247Z,14.60
2022-08-18T17:01:49.033Z,13.83
2022-08-18T17:04:20.767Z,11.73
2022-08-18T17:06:51.162Z,13.83
2022-08-18T17:09:20.549Z,13.47
2022-08-18T17:11:52.055Z,12.37
2022-08-18T17:14:21.567Z,13.40
2022-08-18T17:16:54.271Z,13.47
2022-08-18T17:19:23.308Z,11.80
2022-08-18T17:21:53.321Z,13.00
2022-08-18T17:24:31.198Z,12.17
2022-08-18T17:27:24.176Z,12.57
2022-08-18T17:30:00.582Z,12.80
2022-08-18T17:35:17.731Z,13.67
2022-08-18T17:37:54.507Z,13.70
2022-08-18T17:40:28.839Z,13.03
2022-08-18T17:42:58.574Z,13.30
2022-08-18T17:45:28.472Z,12.70
2022-08-18T17:48:02.975Z,12.43
2022-08-18T17:50:54.428Z,12.80
2022-08-18T17:53:24.193Z,13.70
2022-08-18T17:55:59.739Z,13.00
2022-08-18T17:58:34.258Z,18.13
2022-08-18T18:01:02.975Z,14.20
2022-08-18T18:03:31.385Z,14.80
2022-08-18T18:08:54.642Z,17.07
2022-08-18T18:11:27.885Z,19.77
2022-08-18T18:14:00.177Z,19.47
2022-08-18T18:16:35.651Z,19.70
2022-08-18T18:19:07.835Z,24.07
2022-08-18T18:22:01.000Z,22.13
2022-08-18T18:24:33.451Z,23.73
2022-08-18T18:27:03.359Z,24.90
2022-08-18T18:29:37.964Z,25.27
2022-08-18T18:32:24.686Z,22.40
2022-08-18T18:35:15.158Z,21.73
2022-08-18T18:37:51.506Z,23.40
2022-08-18T18:40:26.527Z,21.90
2022-08-18T18:42:55.837Z,18.50
2022-08-18T18:45:29.204Z,11.63
2022-08-18T18:48:07.645Z,10.90
2022-08-18T18:50:55.715Z,8.00
2022-08-18T18:53:37.138Z,8.27
2022-08-18T18:56:25.342Z,8.27
2022-08-18T18:58:59.620Z,8.70
2022-08-18T19:01:48.616Z,9.20
2022-08-18T19:04:25.825Z,6.33
2022-08-18T19:07:03.058Z,5.50
2022-08-18T19:09:39.200Z,6.03
2022-08-18T19:12:18.948Z,7.50
2022-08-18T19:14:59.527Z,5.60
2022-08-18T19:17:37.781Z,5.97
2022-08-18T19:20:12.246Z,5.50
2022-08-18T19:22:50.699Z,5.30
2022-08-18T19:25:23.178Z,6.00
2022-08-18T19:27:58.976Z,5.10
2022-08-18T19:30:28.303Z,6.00
2022-08-18T19:33:00.872Z,6.57
2022-08-18T19:35:42.640Z,6.43
2022-08-18T19:38:23.768Z,5.30
2022-08-18T19:40:58.649Z,7.10
2022-08-18T19:43:38.925Z,6.13
2022-08-18T19:46:16.660Z,5.07
2022-08-18T19:48:54.542Z,5.00
2022-08-18T19:51:30.460Z,5.40
2022-08-18T19:54:13.046Z,5.60
2022-08-18T19:57:00.536Z,5.60
2022-08-18T19:59:47.158Z,5.00
2022-08-18T20:02:35.218Z,5.83
2022-08-18T20:05:22.394Z,5.20
2022-08-18T20:08:32.928Z,3.97
2022-08-18T20:11:21.037Z,4.20
2022-08-18T20:14:13.421Z,3.97
2022-08-18T20:17:05.222Z,4.00
2022-08-18T20:19:44.657Z,3.77
2022-08-18T20:22:31.993Z,3.50
2022-08-18T20:25:06.507Z,4.03
2022-08-18T20:27:38.156Z,4.17
2022-08-18T20:30:33.786Z,4.20
2022-08-18T20:33:18.003Z,3.97
2022-08-18T20:35:53.585Z,4.33
2022-08-18T20:38:34.136Z,4.63
2022-08-18T20:41:32.030Z,3.97
2022-08-18T20:44:13.150Z,4.37
2022-08-18T20:46:50.282Z,4.90
2022-08-18T20:49:33.299Z,5.23
2022-08-18T20:52:05.948Z,6.30
2022-08-18T20:54:58.178Z,5.83
2022-08-18T20:57:35.094Z,6.00
2022-08-18T21:00:12.935Z,5.57
2022-08-18T21:02:46.975Z,6.40
2022-08-18T21:05:28.001Z,7.80
2022-08-18T21:08:05.814Z,8.67
2022-08-18T21:10:35.278Z,10.37
2022-08-18T21:13:06.509Z,10.50
2022-08-18T21:15:37.088Z,10.60
2022-08-18T21:18:09.667Z,12.27
2022-08-18T21:20:40.198Z,13.67
2022-08-18T21:23:10.521Z,16.10
2022-08-18T21:25:45.478Z,18.27
2022-08-18T21:28:13.627Z,16.53
2022-08-18T21:30:56.360Z,19.40
2022-08-18T21:33:51.227Z,21.57
2022-08-18T21:36:24.921Z,21.30
2022-08-18T21:39:05.621Z,20.50
2022-08-18T21:41:35.017Z,22.80
2022-08-18T21:44:06.945Z,22.17
2022-08-18T21:46:35.763Z,21.70
2022-08-18T21:49:05.028Z,20.93
2022-08-18T21:51:43.970Z,21.53
2022-08-18T21:54:16.742Z,20.13
2022-08-18T21:56:45.581Z,20.43
2022-08-18T21:59:15.871Z,20.20
2022-08-18T22:01:52.090Z,19.50
2022-08-18T22:04:27.162Z,20.90
2022-08-18T22:06:58.906Z,20.70
2022-08-18T22:09:46.965Z,22.13
2022-08-18T22:12:46.146Z,19.77
2022-08-18T22:15:17.841Z,21.57
2022-08-18T22:17:54.069Z,24.10
2022-08-18T22:20:44.990Z,21.63
2022-08-18T22:23:45.867Z,23.93
2022-08-18T22:26:18.916Z,22.87
2022-08-18T22:28:56.031Z,22.20
2022-08-18T22:31:25.875Z,23.97
2022-08-18T22:33:55.634Z,21.70
2022-08-18T22:36:28.249Z,23.03
2022-08-18T22:38:57.728Z,20.87
2022-08-18T22:41:26.005Z,24.90
2022-08-18T22:43:55.448Z,20.70
2022-08-18T22:46:25.240Z,23.77
2022-08-18T22:48:54.060Z,21.77
2022-08-18T22:51:24.152Z,20.83
2022-08-18T22:53:52.374Z,21.43
2022-08-18T22:56:34.009Z,18.13
2022-08-18T22:59:13.415Z,19.27
2022-08-18T23:01:46.127Z,18.80
2022-08-18T23:04:15.875Z,18.00
2022-08-18T23:06:51.039Z,18.53
2022-08-18T23:09:21.141Z,20.33
2022-08-18T23:11:51.113Z,18.50
2022-08-18T23:14:19.318Z,16.73
2022-08-18T23:16:47.867Z,18.13
2022-08-18T23:19:18.474Z,17.80
2022-08-18T23:21:48.449Z,15.03
2022-08-18T23:24:17.972Z,13.63
2022-08-18T23:26:46.903Z,14.93
2022-08-18T23:29:16.760Z,13.60
2022-08-18T23:31:45.536Z,13.50
2022-08-18T23:34:15.414Z,13.60
2022-08-18T23:36:45.808Z,13.40
2022-08-18T23:39:14.579Z,12.20
2022-08-18T23:41:43.105Z,12.40
2022-08-18T23:44:13.676Z,12.40
2022-08-18T23:46:44.848Z,11.93
2022-08-18T23:49:14.813Z,12.70
2022-08-18T23:51:45.520Z,13.20
2022-08-18T23:54:16.930Z,11.60
2022-08-18T23:56:45.939Z,11.93
2022-08-18T23:59:15.266Z,8.73
